Elsah, IL (62028)

8:18 PM CDT on August 28, 2014 (GMT -0500)
Saint Charles County Smartt | Change Station
CLOSE
Current Station
Airport
Location: St. Charles,
Elevation: 436 ft
Nearby Weather Stations

Elev 436 ft 38.93 °N, 90.43 °W | Updated 24 minutes ago

Mostly Cloudy
Mostly Cloudy
74 °F
Feels Like 74 °F
N
12
Wind Variable Wind from ESE

Today
High -- | Low -- °F
--% Chance of Precip.
Yesterday
High -- | Low -- °F
Precip. -- in
6:26 AM 7:37 PM
Waxing Crescent, 11% visible
Pressure 29.95 in
Visibility 7.0 miles
Clouds Few 4100 ft
Few 9000 ft
Mostly Cloudy 11000 ft
Dew Point 72 °F
Humidity 93%
Rainfall 1.01 in
Snow Depth Not available.
UV 0 out of 12
Pollen 10.20 out of 12
Air Quality Not available.
Flu Activity Not available.
METAR KSET 290054Z AUTO 11010KT 7SM FEW041 FEW090 BKN110 23/22 A2996 RMK AO1 LTG DSNT NE AND E TSE11 SLP141 P0001 T02330222

More Conditions Fewer Conditions

Pressure 29.95 in
Visibility 7.0 miles
Clouds Few 4100 ft
Few 9000 ft
Mostly Cloudy 11000 ft
Dew Point 72 °F
Humidity 93%
Rainfall 1.01 in
Snow Depth Not available.
UV 0 out of 12
Pollen 10.20 out of 12
Air Quality Not available.
Flu Activity Not available.
METAR KSET 290054Z AUTO 11010KT 7SM FEW041 FEW090 BKN110 23/22 A2996 RMK AO1 LTG DSNT NE AND E TSE11 SLP141 P0001 T02330222

More Conditions Fewer Conditions

10-Day Weather Forecast

Almanac

Astronomy

Aug. 28, 2014 Rise Set
Actual Time 6:26 AM CDT 7:37 PM CDT
Civil Twilight 5:59 AM CDT 8:05 PM CDT
Nautical Twilight 5:26 AM CDT 8:38 PM CDT
Astronomical Twilight 4:51 AM CDT 9:12 PM CDT
Moon 9:17 AM CDT (8/28) 9:03 PM CDT (8/28)
Length of Visible Light 14h 06m
Length of Day
13h 11m
Tomorrow will be 2m 24s shorter.
Waxing Crescent, 11% of the Moon is Illuminated
Today
Waxing Crescent
Sep 2
First Quarter
Sep 8
Full
Sep 15
Last Quarter
Sep 24
New

Today's Extremes

State Highs State Lows

Community

WunderPhotos

Upload Photos

1,748,126 photos uploaded!

Nearby

Snow Depth

Station Depth Elevation
No new snow has been reported.

Earthquake Activity

City Distance Mag. Time & Date
No recent earthquake activity has been reported nearby.
Minimum magnitude displayed is 2.5.

Coastal Water Temperatures

Place Temperature
No Stations Reporting

Nearby Weather Stations